Dades meteomassalio
Diari Summary for Juny 24, 2017 Units:  Metric    English   Both
« Previous Day
Next Day »
Diari Semanal Mensual Anual Personalitzat
  Maxima: Minima: Mijana:
Temperatura: -17.8 °C -6.3 °C -2.4 °C
Rosada: -17.8 °C -11.3 °C -8.8 °C
Humitat: Humidity % 23 % 52 %
Velocitat del vent: 0 km/h 0 km/h 9 km/h
Racha vent: 0 km/h - -
Vent:- - South
Pressio: 0 hPa 34279.9 hPa -
Pluja: 0 mm    
Historical Graphs
 
 
Tabular Data for Juny 24, 2017
Time Temperature Dew Point Pressure Wind Wind Speed Wind Gust Humidity Rainfall Rate (Hourly) solar Conditions
-17.8 °C -17.8 °C 0 hPa Calm     Humidity % 0 mm SolarRadiationWatts/m^2 W/m2 Conditions
00:04 -2.2 °C -7.4 °C 34405.1 hPa Calm     57 % 0 mm 0.0 W/m2 CLR
00:09 -2.3 °C -7.4 °C 34405.1 hPa Calm     57 % 0 mm 0.0 W/m2 CLR
00:14 -2.3 °C -7.5 °C 34405.1 hPa Calm     57 % 0 mm 0.0 W/m2 CLR
00:19 -2.4 °C -8.1 °C 34405.1 hPa Calm     54 % 0 mm 0.0 W/m2 CLR
00:24 -2.3 °C -8.3 °C 34405.1 hPa Calm     52 % 0 mm 0.0 W/m2 CLR
00:29 -2.2 °C -8 °C 34405.1 hPa Calm     53 % 0 mm 0.0 W/m2 CLR
00:34 -2.2 °C -8.1 °C 34405.1 hPa Calm     53 % 0 mm 0.0 W/m2 CLR
00:39 -2.3 °C -8.1 °C 34405.1 hPa Calm     53 % 0 mm 0.0 W/m2 CLR
00:44 -2.4 °C -8.2 °C 34405.1 hPa Calm     53 % 0 mm 0.0 W/m2 CLR
00:49 -2.4 °C -8.4 °C 34418.7 hPa Calm     52 % 0 mm 0.0 W/m2 CLR
00:54 -2.4 °C -8.4 °C 34418.7 hPa Calm     52 % 0 mm 0.0 W/m2 CLR
00:59 -2.6 °C -8.2 °C 34428.8 hPa NW 29.8 km/h 29.8 km/h 54 % 0 mm 0.0 W/m2 CLR
01:05 -2.7 °C -8.3 °C 34428.8 hPa NNW 9 km/h 9 km/h 54 % 0 mm 0.0 W/m2 CLR
01:10 -2.7 °C -8 °C 34418.7 hPa Calm     56 % 0 mm 0.0 W/m2 CLR
01:15 -2.8 °C -7.8 °C 34418.7 hPa Calm     58 % 0 mm 0.0 W/m2 CLR
01:20 -2.9 °C -7.7 °C 34418.7 hPa East 6 km/h   59 % 0 mm 0.0 W/m2 CLR
01:25 -3.1 °C -7.9 °C 34418.7 hPa Calm     59 % 0 mm 0.0 W/m2 CLR
01:30 -3.2 °C -7.7 °C 34418.7 hPa Calm     61 % 0 mm 0.0 W/m2 CLR
01:35 -3.3 °C -7.6 °C 34418.7 hPa Calm     63 % 0 mm 0.0 W/m2 CLR
01:40 -3.4 °C -7.6 °C 34428.8 hPa Calm     63 % 0 mm 0.0 W/m2 CLR
01:45 -3.5 °C -7.7 °C 34428.8 hPa Calm     63 % 0 mm 0.0 W/m2 CLR
01:50 -3.6 °C -7.7 °C 34428.8 hPa Calm     64 % 0 mm 0.0 W/m2 CLR
01:55 -3.4 °C -7.3 °C 34428.8 hPa NW 26.9 km/h 26.9 km/h 65 % 0 mm 0.0 W/m2 CLR
02:00 -3.2 °C -7.2 °C 34428.8 hPa NW 38.8 km/h 38.8 km/h 65 % 0 mm 0.0 W/m2 CLR
02:05 -3.2 °C -7.1 °C 34442.4 hPa NW 44.7 km/h 44.7 km/h 66 % 0 mm 0.0 W/m2 CLR
02:10 -3.4 °C -7.3 °C 34428.8 hPa NNW 47.6 km/h 47.6 km/h 65 % 0 mm 0.0 W/m2 CLR
02:15 -3.5 °C -7.3 °C 34442.4 hPa WNW 32.8 km/h 32.8 km/h 66 % 0 mm 0.0 W/m2 CLR
02:20 -3.6 °C -7.6 °C 34442.4 hPa WSW 20.9 km/h 20.9 km/h 65 % 0 mm 0.0 W/m2 CLR
02:25 -3.7 °C -7.6 °C 34452.6 hPa Calm   3.9 km/h 65 % 0 mm 0.0 W/m2 CLR
02:30 -3.8 °C -8.7 °C 34452.6 hPa Calm     58 % 0 mm 0.0 W/m2 CLR
02:35 -3.8 °C -8.9 °C 34452.6 hPa Calm     57 % 0 mm 0.0 W/m2 CLR
02:40 -3.9 °C -9 °C 34452.6 hPa West 15 km/h 15 km/h 57 % 0 mm 0.0 W/m2 CLR
02:45 -4.1 °C -9.1 °C 34452.6 hPa NW 11.9 km/h 11.9 km/h 57 % 0 mm 0.0 W/m2 CLR
02:50 -4.2 °C -9.1 °C 34452.6 hPa WNW 9 km/h 9 km/h 58 % 0 mm 0.0 W/m2 CLR
02:55 -4.3 °C -9.1 °C 34452.6 hPa WNW 11.9 km/h 11.9 km/h 58 % 0 mm 0.0 W/m2 CLR
03:00 -4.3 °C -9.1 °C 34452.6 hPa Calm     59 % 0 mm 0.0 W/m2 CLR
03:05 -4.4 °C -9.1 °C 34452.6 hPa Calm     59 % 0 mm 0.0 W/m2 CLR
03:10 -4.4 °C -9.2 °C 34452.6 hPa Calm     59 % 0 mm 0.0 W/m2 CLR
03:15 -4.5 °C -9.1 °C 34452.6 hPa Calm     60 % 0 mm 0.0 W/m2 CLR
03:20 -4.5 °C -9.1 °C 34452.6 hPa Calm     60 % 0 mm 0.0 W/m2 CLR
03:25 -4.6 °C -9.1 °C 34452.6 hPa Calm     60 % 0 mm 0.0 W/m2 CLR
03:30 -4.6 °C -9.2 °C 34452.6 hPa Calm     60 % 0 mm 0.0 W/m2 CLR
03:35 -4.7 °C -9.1 °C 34452.6 hPa Calm     61 % 0 mm 0.0 W/m2 CLR
03:40 -4.7 °C -9.1 °C 34452.6 hPa Calm     61 % 0 mm 0.0 W/m2 CLR
03:45 -4.8 °C -9.2 °C 34462.7 hPa Calm     61 % 0 mm 0.0 W/m2 CLR
03:50 -4.8 °C -9.2 °C 34462.7 hPa Calm     61 % 0 mm 0.0 W/m2 CLR
03:55 -4.8 °C -9.1 °C 34462.7 hPa Calm     62 % 0 mm 0.0 W/m2 CLR
04:00 -4.9 °C -9.1 °C 34462.7 hPa Calm     62 % 0 mm 0.0 W/m2 CLR
04:05 -4.9 °C -9.2 °C 34462.7 hPa Calm     62 % 0 mm 0.0 W/m2 CLR
04:10 -5.1 °C -9.2 °C 34462.7 hPa Calm     63 % 0 mm 0.0 W/m2 CLR
04:15 -5.1 °C -9.2 °C 34462.7 hPa Calm     63 % 0 mm 0.0 W/m2 CLR
04:17 -5.1 °C -9.2 °C 34462.7 hPa Calm     63 % 0 mm 0.0 W/m2 CLR
04:22 -5.2 °C -9.3 °C 34462.7 hPa NW 2.6 km/h   63 % 0 mm 0.0 W/m2 CLR
04:27 -5.2 °C -9.3 °C 34462.7 hPa WNW 9 km/h 9 km/h 63 % 0 mm 0.0 W/m2 CLR
04:32 -5.2 °C -9.3 °C 34462.7 hPa WNW 9 km/h 9 km/h 63 % 0 mm 0.0 W/m2 CLR
04:37 -5.2 °C -9.2 °C 34462.7 hPa WNW 20.8 km/h 20.8 km/h 64 % 0 mm 0.0 W/m2 CLR
04:42 -5.3 °C -9.3 °C 34476.3 hPa NW 20.9 km/h 20.9 km/h 64 % 0 mm 0.0 W/m2 CLR
04:47 -5.3 °C -9.3 °C 34476.3 hPa Calm     64 % 0 mm 0.0 W/m2 CLR
04:52 -5.4 °C -9.3 °C 34476.3 hPa WNW 9 km/h   64 % 0 mm 0.0 W/m2 CLR
04:57 -5.4 °C -9.3 °C 34476.3 hPa NW 17.9 km/h 17.9 km/h 65 % 0 mm 0.0 W/m2 CLR
05:02 -5.4 °C -9.3 °C 34476.3 hPa Calm     65 % 0 mm 0.0 W/m2 CLR
05:07 -5.5 °C -9.3 °C 34476.3 hPa Calm     65 % 0 mm 0.0 W/m2 CLR
05:12 -5.6 °C -9.4 °C 34476.3 hPa WNW 11.9 km/h 11.9 km/h 65 % 0 mm 0.0 W/m2 CLR
05:17 -5.6 °C -9.3 °C 34476.3 hPa NW 15 km/h 15 km/h 66 % 0 mm 0.0 W/m2 CLR
05:22 -5.6 °C -9.3 °C 34476.3 hPa Calm     66 % 0 mm 0.0 W/m2 CLR
05:27 -5.6 °C -9.3 °C 34486.4 hPa Calm     66 % 0 mm 0.0 W/m2 CLR
05:32 -5.7 °C -9.2 °C 34486.4 hPa Calm     67 % 0 mm 0.0 W/m2 CLR
05:37 -5.7 °C -9.2 °C 34486.4 hPa WNW 17.9 km/h 17.9 km/h 67 % 0 mm 0.0 W/m2 CLR
05:42 -5.7 °C -9.3 °C 34486.4 hPa West 9 km/h   67 % 0 mm 0.0 W/m2 CLR
05:47 -5.7 °C -9.3 °C 34486.4 hPa WSW 9 km/h 9 km/h 67 % 0 mm 0.0 W/m2 CLR
05:52 -5.8 °C -9.3 °C 34486.4 hPa WSW 9 km/h 9 km/h 68 % 0 mm 0.0 W/m2 CLR
05:57 -5.9 °C -9.3 °C 34486.4 hPa West 11.9 km/h 11.9 km/h 68 % 0 mm 0.0 W/m2 CLR
06:02 -5.9 °C -9.3 °C 34476.3 hPa WSW 15 km/h 15 km/h 69 % 0 mm 0.0 W/m2 CLR
06:07 -6 °C -9.3 °C 34476.3 hPa WSW 10.3 km/h 10.3 km/h 69 % 0 mm 0.0 W/m2 CLR
06:12 -6.1 °C -9.3 °C 34486.4 hPa WSW 3.1 km/h   69 % 0 mm 0.0 W/m2 CLR
06:17 -6.1 °C -9.3 °C 34486.4 hPa Calm     69 % 0 mm 0.0 W/m2 CLR
06:22 -6.2 °C -9.4 °C 34486.4 hPa Calm     69 % 0 mm 0.0 W/m2 OVC
06:27 -6.2 °C -9.3 °C 34486.4 hPa Calm     70 % 0 mm 0.0 W/m2 OVC
06:32 -6.2 °C -9.3 °C 34476.3 hPa Calm     70 % 0 mm 5.0 W/m2 OVC
06:37 -6.2 °C -9.4 °C 34486.4 hPa WSW 9 km/h 9 km/h 70 % 0 mm 7.0 W/m2 BKN
06:42 -6.3 °C -9.4 °C 34476.3 hPa West 9 km/h 9 km/h 70 % 0 mm 11.0 W/m2 BKN
06:47 -6.3 °C -9.4 °C 34486.4 hPa Calm     70 % 0 mm 14.0 W/m2 BKN
06:52 -6.3 °C -9.5 °C 34486.4 hPa West 15 km/h 15 km/h 70 % 0 mm 18.0 W/m2 BKN
06:57 -6.3 °C -9.3 °C 34486.4 hPa Calm     71 % 0 mm 21.0 W/m2 BKN
07:02 -6.3 °C -9.3 °C 34486.4 hPa Calm     71 % 0 mm 25.0 W/m2 BKN
07:03 -6.3 °C -9.3 °C 34476.3 hPa Calm     71 % 0 mm 25.0 W/m2 BKN
07:08 -6.3 °C -9.3 °C 34486.4 hPa SSW 3.1 km/h 3.1 km/h 71 % 0 mm 33.0 W/m2 BKN
07:13 -6.3 °C -9.3 °C 34486.4 hPa Calm     71 % 0 mm 40.0 W/m2 BKN
07:18 -6.3 °C -9.4 °C 34486.4 hPa WSW 9 km/h 9 km/h 71 % 0 mm 49.0 W/m2 SCT
07:23 -6.3 °C -9.4 °C 34486.4 hPa WSW 9 km/h 9 km/h 71 % 0 mm 58.0 W/m2 SCT
07:28 -6.3 °C -9.3 °C 34486.4 hPa Calm     71 % 0 mm 70.0 W/m2 FEW
07:33 -6.3 °C -9.3 °C 34486.4 hPa Calm     71 % 0 mm 81.0 W/m2 FEW
07:38 -6.2 °C -9.2 °C 34486.4 hPa Calm     71 % 0 mm 95.0 W/m2 FEW
07:43 -6.2 °C -9.3 °C 34486.4 hPa Calm     70 % 0 mm 109.0 W/m2 CLR
07:48 -6.1 °C -9.3 °C 34486.4 hPa Calm     70 % 0 mm 127.0 W/m2 CLR
07:53 -6.1 °C -9.3 °C 34486.4 hPa Calm     69 % 0 mm 141.0 W/m2 CLR
07:58 -6 °C -9.3 °C 34486.4 hPa Calm   1 km/h 69 % 0 mm 155.0 W/m2 CLR
08:03 -5.9 °C -9.2 °C 34486.4 hPa WSW 3.1 km/h   69 % 0 mm 171.0 W/m2 CLR
08:08 -5.8 °C -9.2 °C 34486.4 hPa NNW 15 km/h 15 km/h 68 % 0 mm 190.0 W/m2 CLR
08:13 -5.8 °C -9.3 °C 34486.4 hPa WNW 17.9 km/h 17.9 km/h 67 % 0 mm 204.0 W/m2 CLR
08:18 -5.7 °C -9.3 °C 34486.4 hPa North 20.9 km/h 20.9 km/h 67 % 0 mm 220.0 W/m2 CLR
08:23 -5.7 °C -9.3 °C 34486.4 hPa NW 20.9 km/h 20.9 km/h 67 % 0 mm 234.0 W/m2 CLR
08:28 -5.7 °C -9.3 °C 34486.4 hPa NNW 20.9 km/h 20.9 km/h 66 % 0 mm 251.0 W/m2 CLR
08:33 -5.6 °C -9.3 °C 34486.4 hPa NW 15 km/h 15 km/h 66 % 0 mm 264.0 W/m2 CLR
08:38 -5.5 °C -9.2 °C 34486.4 hPa NW 17.9 km/h 17.9 km/h 66 % 0 mm 281.0 W/m2 CLR
08:43 -5.5 °C -9.3 °C 34486.4 hPa NNW 20.9 km/h 20.9 km/h 65 % 0 mm 294.0 W/m2 CLR
08:48 -5.4 °C -9.3 °C 34496.6 hPa NW 18.2 km/h 18.2 km/h 65 % 0 mm 308.0 W/m2 CLR
08:54 -5.4 °C -9.3 °C 34486.4 hPa WNW 20.9 km/h 20.9 km/h 65 % 0 mm 325.0 W/m2 CLR
08:59 -5.4 °C -9.2 °C 34486.4 hPa WNW 20.9 km/h 20.9 km/h 65 % 0 mm 339.0 W/m2 CLR
09:04 -5.4 °C -9.2 °C 34486.4 hPa NW 17.9 km/h 17.9 km/h 65 % 0 mm 353.0 W/m2 CLR
09:09 -5.3 °C -9.3 °C 34486.4 hPa NW 17.9 km/h 17.9 km/h 64 % 0 mm 369.0 W/m2 CLR
09:14 -5.2 °C -9.2 °C 34486.4 hPa WNW 11.9 km/h 11.9 km/h 64 % 0 mm 387.0 W/m2 CLR
09:19 -5.2 °C -9.1 °C 34486.4 hPa Calm     64 % 0 mm 403.0 W/m2 CLR
09:24 -5.1 °C -9.3 °C 34486.4 hPa West 12.9 km/h 12.9 km/h 62 % 0 mm 415.0 W/m2 CLR
09:29 -5.1 °C -9.2 °C 34476.3 hPa Calm     63 % 0 mm 429.0 W/m2 CLR
09:34 -4.8 °C -9.2 °C 34476.3 hPa WNW 15 km/h 15 km/h 61 % 0 mm 446.0 W/m2 CLR
09:39 -4.7 °C -9.1 °C 34476.3 hPa NW 15 km/h 15 km/h 61 % 0 mm 462.0 W/m2 CLR
09:44 -4.7 °C -9.1 °C 34476.3 hPa NW 15.6 km/h 15.6 km/h 61 % 0 mm 476.0 W/m2 CLR
09:49 -4.6 °C -9.2 °C 34476.3 hPa WNW 11.9 km/h 11.9 km/h 60 % 0 mm 489.0 W/m2 CLR
09:54 -4.5 °C -9.1 °C 34476.3 hPa NW 12.9 km/h 12.9 km/h 60 % 0 mm 503.0 W/m2 CLR
09:59 -4.4 °C -9 °C 34476.3 hPa West 5.1 km/h 5.1 km/h 60 % 0 mm 519.0 W/m2 CLR
10:04 -4.3 °C -9.1 °C 34476.3 hPa Calm     59 % 0 mm 533.0 W/m2 CLR
10:09 -4.2 °C -8.9 °C 34476.3 hPa Calm     59 % 0 mm 547.0 W/m2 CLR
10:14 -4 °C -8.9 °C 34462.7 hPa NW 15.6 km/h 15.6 km/h 58 % 0 mm 561.0 W/m2 CLR
10:15 -4 °C -9.1 °C 34462.7 hPa NNW 15 km/h 15 km/h 57 % 0 mm 561.0 W/m2 CLR
10:20 -4 °C -9.1 °C 34462.7 hPa NW 15 km/h 15 km/h 57 % 0 mm 575.0 W/m2 CLR
10:25 -4 °C -9.1 °C 34462.7 hPa Calm     57 % 0 mm 587.0 W/m2 CLR
10:30 -3.9 °C -9 °C 34462.7 hPa Calm     57 % 0 mm 599.0 W/m2 CLR
10:35 -3.7 °C -8.9 °C 34462.7 hPa North 11.9 km/h 11.9 km/h 56 % 0 mm 615.0 W/m2 CLR
10:40 -3.6 °C -8.9 °C 34462.7 hPa NE 23.8 km/h 23.8 km/h 55 % 0 mm 628.0 W/m2 CLR
10:45 -3.6 °C -8.9 °C 34462.7 hPa NNW 15 km/h 15 km/h 55 % 0 mm 638.0 W/m2 CLR
10:50 -3.5 °C -8.8 °C 34462.7 hPa Calm     56 % 0 mm 647.0 W/m2 CLR
10:55 -3.3 °C -8.9 °C 34462.7 hPa NW 6 km/h 6 km/h 54 % 0 mm 663.0 W/m2 CLR
11:00 -3.2 °C -8.8 °C 34462.7 hPa North 18.2 km/h 18.2 km/h 54 % 0 mm 675.0 W/m2 CLR
11:05 -3.2 °C -8.8 °C 34462.7 hPa North 12.9 km/h 12.9 km/h 54 % 0 mm 687.0 W/m2 CLR
11:10 -3.2 °C -8.8 °C 34462.7 hPa NE 2.6 km/h   54 % 0 mm 700.0 W/m2 CLR
11:15 -3.1 °C -8.8 °C 34462.7 hPa NNE 9 km/h 9 km/h 53 % 0 mm 712.0 W/m2 CLR
11:20 -3 °C -8.8 °C 34462.7 hPa North 9 km/h 9 km/h 53 % 0 mm 729.0 W/m2 CLR
11:25 -2.9 °C -8.8 °C 34476.3 hPa ENE 15 km/h 15 km/h 52 % 0 mm 749.0 W/m2 CLR
11:30 -2.9 °C -9 °C 34462.7 hPa Calm     51 % 0 mm 754.0 W/m2 CLR
11:35 -2.8 °C -8.9 °C 34462.7 hPa North 20.9 km/h 20.9 km/h 51 % 0 mm 763.0 W/m2 CLR
11:40 -2.8 °C -8.9 °C 34462.7 hPa ENE 15.6 km/h 15.6 km/h 51 % 0 mm 773.0 W/m2 CLR
11:45 -2.8 °C -8.7 °C 34462.7 hPa Calm     52 % 0 mm 784.0 W/m2 CLR
11:50 -2.6 °C -8.8 °C 34462.7 hPa North 15.6 km/h 15.6 km/h 50 % 0 mm 789.0 W/m2 CLR
11:55 -2.6 °C -8.8 °C 34462.7 hPa ENE 9 km/h 9 km/h 50 % 0 mm 800.0 W/m2 CLR
12:00 -2.4 °C -8.8 °C 34462.7 hPa North 15 km/h 15 km/h 50 % 0 mm 810.0 W/m2 CLR
12:05 -2.3 °C -8.8 °C 34462.7 hPa East 9 km/h 9 km/h 49 % 0 mm 826.0 W/m2 CLR
12:10 -2.2 °C -8.9 °C 34462.7 hPa ENE 9 km/h 9 km/h 48 % 0 mm 831.0 W/m2 CLR
12:15 -2.3 °C -8.9 °C 34462.7 hPa Calm     48 % 0 mm 838.0 W/m2 CLR
12:20 -2.2 °C -8.7 °C 34452.6 hPa Calm     49 % 0 mm 849.0 W/m2 CLR
12:25 -2 °C -8.7 °C 34452.6 hPa NE 11.9 km/h   48 % 0 mm 860.0 W/m2 CLR
12:30 -1.9 °C -8.7 °C 34452.6 hPa NNE 10.3 km/h 10.3 km/h 48 % 0 mm 860.0 W/m2 CLR
12:35 -1.8 °C -8.7 °C 34442.4 hPa Calm     47 % 0 mm 868.0 W/m2 CLR
12:40 -1.7 °C -8.8 °C 34442.4 hPa SSE 6 km/h 6 km/h 46 % 0 mm 870.0 W/m2 CLR
12:45 -1.7 °C -8.8 °C 34442.4 hPa East 6 km/h 6 km/h 46 % 0 mm 877.0 W/m2 CLR
12:50 -1.7 °C -8.8 °C 34442.4 hPa ENE 3.1 km/h   46 % 0 mm 884.0 W/m2 CLR
12:55 -1.6 °C -8.8 °C 34428.8 hPa ENE 11.9 km/h 11.9 km/h 45 % 0 mm 882.0 W/m2 CLR
13:00 -1.5 °C -8.8 °C 34428.8 hPa SE 11.9 km/h 11.9 km/h 45 % 0 mm 886.0 W/m2 CLR
13:05 -1.3 °C -8.8 °C 34428.8 hPa NNE 17.9 km/h 17.9 km/h 44 % 0 mm 896.0 W/m2 CLR
13:07 -1.2 °C -8.7 °C 34428.8 hPa Calm     44 % 0 mm 898.0 W/m2 CLR
13:12 -1.1 °C -8.8 °C 34428.8 hPa NNE 3.1 km/h 3.1 km/h 43 % 0 mm 898.0 W/m2 CLR
13:17 -0.9 °C -8.9 °C 34428.8 hPa NW 11.9 km/h 11.9 km/h 42 % 0 mm 907.0 W/m2 CLR
13:22 -0.9 °C -8.8 °C 34428.8 hPa Calm     42 % 0 mm 905.0 W/m2 CLR
13:27 -0.7 °C -8.8 °C 34418.7 hPa ENE 9 km/h 9 km/h 41 % 0 mm 912.0 W/m2 CLR
13:32 -0.6 °C -8.8 °C 34418.7 hPa ENE 6 km/h 6 km/h 41 % 0 mm 919.0 W/m2 CLR
13:37 -0.6 °C -9 °C 34405.1 hPa NE 11.9 km/h 11.9 km/h 40 % 0 mm 914.0 W/m2 CLR
13:42 -0.4 °C -8.8 °C 34405.1 hPa ENE 15 km/h 15 km/h 40 % 0 mm 919.0 W/m2 CLR
13:47 -0.2 °C -8.7 °C 34405.1 hPa Calm     40 % 0 mm 923.0 W/m2 CLR
13:52 -0.1 °C -8.8 °C 34395 hPa NNE 11.9 km/h 11.9 km/h 39 % 0 mm 923.0 W/m2 CLR
13:57 0.1 °C -8.7 °C 34395 hPa ENE 12.9 km/h 12.9 km/h 39 % 0 mm 919.0 W/m2 CLR
14:02 0.1 °C -8.8 °C 34395 hPa NE 9 km/h 9 km/h 38 % 0 mm 851.0 W/m2 CLR
14:07 0.1 °C -9.1 °C 34395 hPa Calm     37 % 0 mm 559.0 W/m2 CLR
14:12 0.1 °C -8.8 °C 34395 hPa ENE 17.9 km/h 17.9 km/h 38 % 0 mm 997.0 W/m2 CLR
14:17 0.2 °C -9 °C 34384.8 hPa NE 17.9 km/h 17.9 km/h 37 % 0 mm 744.0 W/m2 CLR
14:22 0.1 °C -9.4 °C 34395 hPa NNE 23.8 km/h 23.8 km/h 36 % 0 mm 376.0 W/m2 CLR
14:27 -0.1 °C -9.5 °C 34395 hPa Calm     36 % 0 mm 983.0 W/m2 CLR
14:32 0.1 °C -9.3 °C 34395 hPa North 20.9 km/h 20.9 km/h 36 % 0 mm 933.0 W/m2 CLR
14:37 0.2 °C -9.3 °C 34384.8 hPa ENE 12.9 km/h 12.9 km/h 36 % 0 mm 868.0 W/m2 CLR
14:42 0.4 °C -9.3 °C 34384.8 hPa NE 11.9 km/h   35 % 0 mm 828.0 W/m2 CLR
14:47 0.4 °C -9.3 °C 34384.8 hPa ENE 20.9 km/h 20.9 km/h 35 % 0 mm 445.0 W/m2 CLR
14:52 0.5 °C -9.5 °C 34384.8 hPa North 17.9 km/h 17.9 km/h 34 % 0 mm 675.0 W/m2 CLR
14:57 0.4 °C -9.6 °C 34384.8 hPa North 20.9 km/h 20.9 km/h 34 % 0 mm 677.0 W/m2 CLR
15:02 0.3 °C -9.6 °C 34371.3 hPa ENE 10.3 km/h 10.3 km/h 34 % 0 mm 594.0 W/m2 CLR
15:07 0.4 °C -9.8 °C 34371.3 hPa North 17.9 km/h 17.9 km/h 33 % 0 mm 928.0 W/m2 CLR
15:12 0.6 °C -9.6 °C 34371.3 hPa NE 9 km/h 9 km/h 33 % 0 mm 863.0 W/m2 CLR
15:17 0.7 °C -9.8 °C 34371.3 hPa NNE 2.6 km/h 2.6 km/h 32 % 0 mm 833.0 W/m2 CLR
15:22 0.9 °C -9.9 °C 34371.3 hPa Calm     31 % 0 mm 867.0 W/m2 CLR
15:23 0.9 °C -9.9 °C 34371.3 hPa Calm     31 % 0 mm 895.0 W/m2 CLR
15:28 1.2 °C -9.7 °C 34371.3 hPa NNE 11.9 km/h 11.9 km/h 31 % 0 mm 879.0 W/m2 CLR
15:33 1.3 °C -9.9 °C 34361.1 hPa NE 20.9 km/h 20.9 km/h 30 % 0 mm 872.0 W/m2 CLR
15:38 1.3 °C -10.2 °C 34361.1 hPa NE 26.9 km/h 26.9 km/h 29 % 0 mm 854.0 W/m2 CLR
15:43 1.3 °C -10.2 °C 34361.1 hPa NE 15 km/h 15 km/h 29 % 0 mm 895.0 W/m2 CLR
15:48 1.3 °C -10.7 °C 34361.1 hPa ENE 15 km/h 15 km/h 27 % 0 mm 671.0 W/m2 CLR
15:53 1.3 °C -10.4 °C 34347.6 hPa NNE 20.9 km/h 20.9 km/h 28 % 0 mm 780.0 W/m2 CLR
15:58 1.3 °C -10.7 °C 34347.6 hPa North 15 km/h 15 km/h 27 % 0 mm 844.0 W/m2 CLR
16:03 1.3 °C -10.4 °C 34347.6 hPa NE 15.6 km/h 15.6 km/h 28 % 0 mm 580.0 W/m2 CLR
16:08 1.5 °C -10.3 °C 34347.6 hPa NNE 15.6 km/h 15.6 km/h 28 % 0 mm 482.0 W/m2 CLR
16:13 1.5 °C -10.2 °C 34337.4 hPa NNW 15 km/h 15 km/h 28 % 0 mm 374.0 W/m2 CLR
16:18 1.4 °C -10.3 °C 34347.6 hPa NE 17.9 km/h 17.9 km/h 28 % 0 mm 503.0 W/m2 CLR
16:23 1.5 °C -10.6 °C 34337.4 hPa NNW 20.9 km/h 20.9 km/h 27 % 0 mm 796.0 W/m2 CLR
16:28 1.6 °C -10.5 °C 34337.4 hPa Calm     27 % 0 mm 589.0 W/m2 CLR
16:33 1.6 °C -11.2 °C 34337.4 hPa North 15 km/h 15 km/h 25 % 0 mm 281.0 W/m2 CLR
16:38 1.6 °C -11.2 °C 34337.4 hPa NE 15.6 km/h 20.9 km/h 25 % 0 mm 480.0 W/m2 CLR
16:43 1.6 °C -10.8 °C 34337.4 hPa NNW 12.9 km/h 12.9 km/h 26 % 0 mm 854.0 W/m2 CLR
16:48 1.8 °C -11 °C 34327.3 hPa NNW 15 km/h 15 km/h 25 % 0 mm 805.0 W/m2 CLR
16:53 2.1 °C -10.7 °C 34327.3 hPa NE 5.1 km/h 5.1 km/h 25 % 0 mm 707.0 W/m2 CLR
16:58 2.3 °C -10.9 °C 34327.3 hPa North 11.9 km/h 11.9 km/h 24 % 0 mm 782.0 W/m2 CLR
17:03 2.3 °C -11.3 °C 34327.3 hPa NNW 11.9 km/h 11.9 km/h 23 % 0 mm 731.0 W/m2 CLR
17:08 2.3 °C -10.6 °C 34327.3 hPa ENE 15.6 km/h 15.6 km/h 25 % 0 mm 705.0 W/m2 CLR
17:13 2.1 °C -11.1 °C 34327.3 hPa NE 7.7 km/h 8.5 km/h 24 % 0 mm 749.0 W/m2 CLR
17:18 2.1 °C -11.1 °C 34327.3 hPa NE 17.9 km/h 17.9 km/h 24 % 0 mm 773.0 W/m2 CLR
17:23 2.2 °C -10.7 °C 34313.7 hPa NNE 9 km/h 9 km/h 25 % 0 mm 694.0 W/m2 CLR
17:28 2.2 °C -11 °C 34313.7 hPa NNW 11.9 km/h 11.9 km/h 24 % 0 mm 659.0 W/m2 CLR
17:33 2.2 °C -10.7 °C 34313.7 hPa WNW 5.1 km/h 5.1 km/h 25 % 0 mm 322.0 W/m2 CLR
17:38 2.2 °C -10.3 °C 34313.7 hPa Calm     26 % 0 mm 647.0 W/m2 CLR
17:43 2 °C -8.9 °C 34313.7 hPa East 29.8 km/h 29.8 km/h 31 % 0 mm 626.0 W/m2 CLR
17:44 1.9 °C -8.8 °C 34303.6 hPa East 17.9 km/h 17.9 km/h 32 % 0 mm 591.0 W/m2 CLR
17:49 1.6 °C -9 °C 34313.7 hPa Calm     32 % 0 mm 575.0 W/m2 CLR
17:54 1.8 °C -8.9 °C 34303.6 hPa Calm     32 % 0 mm 555.0 W/m2 CLR
17:59 1.9 °C -9.1 °C 34303.6 hPa ENE 6 km/h 6 km/h 31 % 0 mm 543.0 W/m2 CLR
18:04 1.8 °C -8.8 °C 34303.6 hPa ESE 15 km/h 15 km/h 32 % 0 mm 529.0 W/m2 CLR
18:09 1.7 °C -8.7 °C 34303.6 hPa East 17.9 km/h 17.9 km/h 33 % 0 mm 485.0 W/m2 CLR
18:14 1.6 °C -8.8 °C 34293.4 hPa ENE 20.9 km/h 20.9 km/h 33 % 0 mm 489.0 W/m2 CLR
18:19 1.6 °C -8.6 °C 34303.6 hPa East 10.3 km/h 10.3 km/h 34 % 0 mm 475.0 W/m2 CLR
18:24 1.6 °C -8.5 °C 34293.4 hPa ENE 7.7 km/h 7.7 km/h 34 % 0 mm 459.0 W/m2 CLR
18:29 1.6 °C -8.5 °C 34293.4 hPa Calm     34 % 0 mm 445.0 W/m2 CLR
18:34 1.7 °C -8.7 °C 34293.4 hPa Calm     33 % 0 mm 427.0 W/m2 CLR
18:39 1.7 °C -8.9 °C 34293.4 hPa ENE 11.9 km/h 11.9 km/h 32 % 0 mm 415.0 W/m2 CLR
18:44 1.5 °C -7.8 °C 34279.9 hPa ESE 29.8 km/h 29.8 km/h 37 % 0 mm 399.0 W/m2 CLR
18:46 1.4 °C -7.9 °C 34293.4 hPa SE 31.1 km/h 31.1 km/h 37 % 0 mm 392.0 W/m2 CLR
18:51 1.3 °C -7.8 °C 34279.9 hPa ESE 20.9 km/h 20.9 km/h 38 % 0 mm 371.0 W/m2 CLR
18:56 1.2 °C -8.1 °C 34279.9 hPa ESE 26.9 km/h 26.9 km/h 37 % 0 mm 362.0 W/m2 CLR
19:01 1.2 °C -7.9 °C 34279.9 hPa East 18.2 km/h 18.2 km/h 38 % 0 mm 345.0 W/m2 CLR
19:06 1.1 °C -8.2 °C 34279.9 hPa SE 26.9 km/h 26.9 km/h 37 % 0 mm 329.0 W/m2 CLR
19:11 0.9 °C -8.1 °C 34279.9 hPa ESE 23.8 km/h 23.8 km/h 38 % 0 mm 316.0 W/m2 CLR
19:16 0.8 °C -8.2 °C 34279.9 hPa ESE 29.8 km/h 29.8 km/h 38 % 0 mm 301.0 W/m2 CLR
19:21 0.7 °C -8.4 °C 34279.9 hPa ESE 29.8 km/h 29.8 km/h 38 % 0 mm 287.0 W/m2 CLR
19:26 0.6 °C -8.4 °C 34279.9 hPa ESE 29.8 km/h 29.8 km/h 38 % 0 mm 274.0 W/m2 CLR
19:31 0.5 °C -8.7 °C 34279.9 hPa ESE 26.9 km/h 26.9 km/h 37 % 0 mm 260.0 W/m2 CLR
19:36 0.6 °C -8.9 °C 34279.9 hPa ESE 20.9 km/h 20.9 km/h 36 % 0 mm 244.0 W/m2 CLR
19:41 0.6 °C -9.2 °C 34279.9 hPa ESE 29.8 km/h 29.8 km/h 35 % 0 mm 230.0 W/m2 CLR
19:46 0.5 °C -8.9 °C 34279.9 hPa East 23.8 km/h 23.8 km/h 36 % 0 mm 213.0 W/m2 CLR
19:51 0.4 °C -8.8 °C 34279.9 hPa East 29.8 km/h 29.8 km/h 37 % 0 mm 199.0 W/m2 CLR
19:56 0.3 °C -8.7 °C 34279.9 hPa ESE 26.9 km/h 26.9 km/h 38 % 0 mm 183.0 W/m2 CLR
20:01 0.1 °C -8.2 °C 34279.9 hPa ESE 18.2 km/h 18.2 km/h 41 % 0 mm 165.0 W/m2 CLR
20:06 0.1 °C -8 °C 34279.9 hPa SE 11.9 km/h   42 % 0 mm 151.0 W/m2 CLR
20:08 0 °C -7.9 °C 34279.9 hPa East 11.9 km/h 11.9 km/h 43 % 0 mm 144.0 W/m2 CLR
20:13 -0.1 °C -7.8 °C 34279.9 hPa ESE 18.2 km/h 18.2 km/h 44 % 0 mm 130.0 W/m2 CLR
20:18 -0.2 °C -7.4 °C 34279.9 hPa ESE 17.9 km/h 17.9 km/h 46 % 0 mm 116.0 W/m2 CLR
20:23 -0.4 °C -7.6 °C 34293.4 hPa SE 15 km/h 15 km/h 46 % 0 mm 104.0 W/m2 CLR
20:28 -0.4 °C -7.7 °C 34293.4 hPa ESE 11.9 km/h 11.9 km/h 46 % 0 mm 90.0 W/m2 CLR
20:33 -0.4 °C -7.5 °C 34293.4 hPa Calm     47 % 0 mm 77.0 W/m2 CLR
20:38 -0.5 °C -7.6 °C 34293.4 hPa Calm     47 % 0 mm 67.0 W/m2 FEW
20:43 -0.5 °C -7.6 °C 34293.4 hPa Calm     47 % 0 mm 58.0 W/m2 SCT
20:48 -0.5 °C -7.6 °C 34293.4 hPa Calm     47 % 0 mm 42.0 W/m2 BKN
20:53 -0.6 °C -7.4 °C 34293.4 hPa ENE 2.6 km/h   48 % 0 mm 40.0 W/m2 BKN
20:58 -0.7 °C -7.3 °C 34293.4 hPa ENE 20.9 km/h 20.9 km/h 49 % 0 mm 33.0 W/m2 BKN
21:03 -0.9 °C -7.3 °C 34293.4 hPa ENE 6 km/h   50 % 0 mm 28.0 W/m2 BKN
21:08 -0.9 °C -7.2 °C 34293.4 hPa Calm     51 % 0 mm 23.0 W/m2 BKN
21:13 -1.1 °C -7.2 °C 34303.6 hPa ENE 9 km/h 9 km/h 52 % 0 mm 18.0 W/m2 BKN
21:18 -1.2 °C -7.3 °C 34303.6 hPa Calm     52 % 0 mm 14.0 W/m2 BKN
21:23 -1.3 °C -7.3 °C 34303.6 hPa Calm     53 % 0 mm 9.0 W/m2 BKN
21:28 -1.4 °C -7.2 °C 34303.6 hPa Calm     54 % 0 mm 5.0 W/m2 OVC
21:33 -1.5 °C -7.1 °C 34303.6 hPa Calm   0.3 km/h 55 % 0 mm 0.0 W/m2 OVC
21:38 -1.7 °C -7.1 °C 34303.6 hPa East 6 km/h   56 % 0 mm 0.0 W/m2 OVC
21:43 -1.8 °C -7 °C 34303.6 hPa Calm     57 % 0 mm 0.0 W/m2 OVC
21:48 -1.9 °C -7.1 °C 34313.7 hPa Calm     57 % 0 mm 0.0 W/m2 CLR
21:49 -1.9 °C -7.1 °C 34313.7 hPa Calm     57 % 0 mm 0.0 W/m2 CLR
21:54 -2 °C -7.1 °C 34313.7 hPa ENE 9 km/h 9 km/h 58 % 0 mm 0.0 W/m2 CLR
21:59 -2.1 °C -7 °C 34313.7 hPa Calm     59 % 0 mm 0.0 W/m2 CLR
22:00 -2.1 °C -7 °C 34313.7 hPa Calm     59 % 0 mm 0.0 W/m2 CLR
22:05 -2.2 °C -7.1 °C 34313.7 hPa Calm     59 % 0 mm 0.0 W/m2 CLR
22:10 -2.3 °C -7 °C 34327.3 hPa Calm     60 % 0 mm 0.0 W/m2 CLR
22:15 -2.3 °C -6.9 °C 34327.3 hPa Calm     61 % 0 mm 0.0 W/m2 CLR
22:20 -2.4 °C -7 °C 34327.3 hPa Calm     61 % 0 mm 0.0 W/m2 CLR
22:25 -2.4 °C -6.9 °C 34337.4 hPa Calm     62 % 0 mm 0.0 W/m2 CLR
22:30 -2.5 °C -6.9 °C 34337.4 hPa Calm     62 % 0 mm 0.0 W/m2 CLR
22:35 -2.6 °C -7 °C 34337.4 hPa Calm     62 % 0 mm 0.0 W/m2 CLR
22:40 -2.6 °C -6.8 °C 34337.4 hPa Calm     63 % 0 mm 0.0 W/m2 CLR
22:45 -2.7 °C -6.9 °C 34347.6 hPa Calm     63 % 0 mm 0.0 W/m2 CLR
22:50 -2.7 °C -7 °C 34347.6 hPa Calm     63 % 0 mm 0.0 W/m2 CLR
22:55 -2.8 °C -7.1 °C 34347.6 hPa Calm     63 % 0 mm 0.0 W/m2 CLR
23:00 -3 °C -7.1 °C 34361.1 hPa WNW 17.9 km/h 17.9 km/h 64 % 0 mm 0.0 W/m2 CLR
23:05 -3.1 °C -7 °C 34361.1 hPa Calm     65 % 0 mm 0.0 W/m2 CLR
23:10 -3.1 °C -7.1 °C 34361.1 hPa Calm     65 % 0 mm 0.0 W/m2 CLR
23:15 -3.1 °C -7.2 °C 34361.1 hPa Calm     64 % 0 mm 0.0 W/m2 CLR
23:20 -3.1 °C -7.1 °C 34361.1 hPa Calm     65 % 0 mm 0.0 W/m2 CLR
23:25 -3.2 °C -7.1 °C 34371.3 hPa Calm     65 % 0 mm 0.0 W/m2 CLR
23:30 -3.2 °C -7.2 °C 34371.3 hPa Calm     65 % 0 mm 0.0 W/m2 CLR
23:35 -3.2 °C -7.2 °C 34371.3 hPa Calm     65 % 0 mm 0.0 W/m2 CLR
23:40 -3.2 °C -7.2 °C 34371.3 hPa Calm     65 % 0 mm 0.0 W/m2 CLR
23:45 -3.2 °C -7.2 °C 34371.3 hPa Calm     65 % 0 mm 0.0 W/m2 CLR
23:50 -3.2 °C -7.3 °C 34371.3 hPa Calm     64 % 0 mm 0.0 W/m2 CLR
23:55 -3.2 °C -7.6 °C 34371.3 hPa Calm     62 % 0 mm 0.0 W/m2 CLR
Lo Temps de Massalio
Compliments of Weather Underground - 1.25 mb